sensor_id;sensor_type;location;lat;lon;timestamp;P1;durP1;ratioP1;P2;durP2;ratioP2
68050;SDS011;54839;51.364;7.246;2024-02-14T00:01:22;8.07;;;3.07;;
68050;SDS011;54839;51.364;7.246;2024-02-14T00:03:48;11.60;;;4.00;;
68050;SDS011;54839;51.364;7.246;2024-02-14T00:06:14;6.33;;;3.30;;
68050;SDS011;54839;51.364;7.246;2024-02-14T00:08:40;3.73;;;2.23;;
68050;SDS011;54839;51.364;7.246;2024-02-14T00:11:05;5.43;;;3.00;;
68050;SDS011;54839;51.364;7.246;2024-02-14T00:13:31;5.33;;;2.90;;
68050;SDS011;54839;51.364;7.246;2024-02-14T00:15:59;3.60;;;2.80;;
68050;SDS011;54839;51.364;7.246;2024-02-14T00:18:26;3.90;;;2.77;;
68050;SDS011;54839;51.364;7.246;2024-02-14T00:20:52;10.73;;;2.07;;
68050;SDS011;54839;51.364;7.246;2024-02-14T00:23:18;3.90;;;2.87;;
68050;SDS011;54839;51.364;7.246;2024-02-14T00:25:43;3.70;;;2.07;;
68050;SDS011;54839;51.364;7.246;2024-02-14T00:28:09;5.77;;;2.47;;
68050;SDS011;54839;51.364;7.246;2024-02-14T00:30:35;2.60;;;2.20;;
68050;SDS011;54839;51.364;7.246;2024-02-14T00:33:00;2.53;;;2.10;;
68050;SDS011;54839;51.364;7.246;2024-02-14T00:35:26;2.93;;;2.00;;
68050;SDS011;54839;51.364;7.246;2024-02-14T00:37:51;6.30;;;2.13;;
68050;SDS011;54839;51.364;7.246;2024-02-14T00:40:17;2.30;;;1.80;;
68050;SDS011;54839;51.364;7.246;2024-02-14T00:42:43;3.17;;;1.90;;
68050;SDS011;54839;51.364;7.246;2024-02-14T00:45:09;2.93;;;2.10;;
68050;SDS011;54839;51.364;7.246;2024-02-14T00:47:35;2.47;;;2.27;;
68050;SDS011;54839;51.364;7.246;2024-02-14T00:50:01;5.50;;;2.40;;
68050;SDS011;54839;51.364;7.246;2024-02-14T00:52:27;4.20;;;2.60;;
68050;SDS011;54839;51.364;7.246;2024-02-14T00:54:54;4.20;;;2.43;;
68050;SDS011;54839;51.364;7.246;2024-02-14T00:57:19;2.97;;;2.33;;
68050;SDS011;54839;51.364;7.246;2024-02-14T00:59:45;3.57;;;2.67;;
68050;SDS011;54839;51.364;7.246;2024-02-14T01:02:11;6.53;;;3.30;;
68050;SDS011;54839;51.364;7.246;2024-02-14T01:04:37;3.90;;;2.30;;
68050;SDS011;54839;51.364;7.246;2024-02-14T01:07:05;4.07;;;2.53;;
68050;SDS011;54839;51.364;7.246;2024-02-14T01:09:31;5.63;;;2.53;;
68050;SDS011;54839;51.364;7.246;2024-02-14T01:11:57;4.97;;;2.70;;
68050;SDS011;54839;51.364;7.246;2024-02-14T01:14:24;6.10;;;2.87;;
68050;SDS011;54839;51.364;7.246;2024-02-14T01:16:49;6.27;;;2.50;;
68050;SDS011;54839;51.364;7.246;2024-02-14T01:19:15;9.93;;;3.00;;
68050;SDS011;54839;51.364;7.246;2024-02-14T01:21:44;2.70;;;2.40;;
68050;SDS011;54839;51.364;7.246;2024-02-14T01:24:13;3.67;;;2.53;;
68050;SDS011;54839;51.364;7.246;2024-02-14T01:26:39;7.40;;;2.70;;
68050;SDS011;54839;51.364;7.246;2024-02-14T01:29:05;4.83;;;3.07;;
68050;SDS011;54839;51.364;7.246;2024-02-14T01:31:32;3.83;;;2.30;;
68050;SDS011;54839;51.364;7.246;2024-02-14T01:33:59;4.20;;;2.40;;
68050;SDS011;54839;51.364;7.246;2024-02-14T01:36:27;5.13;;;2.67;;
68050;SDS011;54839;51.364;7.246;2024-02-14T01:38:55;4.67;;;2.97;;
68050;SDS011;54839;51.364;7.246;2024-02-14T01:41:21;5.70;;;3.17;;
68050;SDS011;54839;51.364;7.246;2024-02-14T01:43:47;4.20;;;2.37;;
68050;SDS011;54839;51.364;7.246;2024-02-14T01:46:14;4.23;;;2.70;;
68050;SDS011;54839;51.364;7.246;2024-02-14T01:48:41;5.83;;;2.90;;
68050;SDS011;54839;51.364;7.246;2024-02-14T01:51:08;2.60;;;2.27;;
68050;SDS011;54839;51.364;7.246;2024-02-14T01:53:35;4.43;;;3.00;;
68050;SDS011;54839;51.364;7.246;2024-02-14T01:56:03;3.00;;;2.53;;
68050;SDS011;54839;51.364;7.246;2024-02-14T01:58:30;3.37;;;2.20;;
68050;SDS011;54839;51.364;7.246;2024-02-14T02:00:56;8.67;;;2.00;;
68050;SDS011;54839;51.364;7.246;2024-02-14T02:03:23;3.67;;;2.03;;
68050;SDS011;54839;51.364;7.246;2024-02-14T02:05:49;2.30;;;1.90;;
68050;SDS011;54839;51.364;7.246;2024-02-14T02:08:16;2.93;;;1.90;;
68050;SDS011;54839;51.364;7.246;2024-02-14T02:10:42;3.10;;;2.03;;
68050;SDS011;54839;51.364;7.246;2024-02-14T02:13:08;6.57;;;2.10;;
68050;SDS011;54839;51.364;7.246;2024-02-14T02:15:34;5.00;;;1.97;;
68050;SDS011;54839;51.364;7.246;2024-02-14T02:18:00;5.70;;;2.70;;
68050;SDS011;54839;51.364;7.246;2024-02-14T02:20:27;3.00;;;2.30;;
68050;SDS011;54839;51.364;7.246;2024-02-14T02:22:53;2.00;;;1.67;;
68050;SDS011;54839;51.364;7.246;2024-02-14T02:25:19;2.97;;;2.60;;
68050;SDS011;54839;51.364;7.246;2024-02-14T02:27:49;4.10;;;2.70;;
68050;SDS011;54839;51.364;7.246;2024-02-14T02:30:15;10.40;;;2.90;;
68050;SDS011;54839;51.364;7.246;2024-02-14T02:32:41;3.40;;;1.83;;
68050;SDS011;54839;51.364;7.246;2024-02-14T02:35:08;4.23;;;2.57;;
68050;SDS011;54839;51.364;7.246;2024-02-14T02:37:34;3.93;;;1.90;;
68050;SDS011;54839;51.364;7.246;2024-02-14T02:40:00;4.20;;;1.90;;
68050;SDS011;54839;51.364;7.246;2024-02-14T02:42:26;5.23;;;1.97;;
68050;SDS011;54839;51.364;7.246;2024-02-14T02:44:54;4.23;;;2.80;;
68050;SDS011;54839;51.364;7.246;2024-02-14T02:47:19;4.53;;;2.97;;
68050;SDS011;54839;51.364;7.246;2024-02-14T02:49:45;3.40;;;2.40;;
68050;SDS011;54839;51.364;7.246;2024-02-14T02:52:11;6.70;;;2.27;;
68050;SDS011;54839;51.364;7.246;2024-02-14T02:54:37;2.10;;;1.70;;
68050;SDS011;54839;51.364;7.246;2024-02-14T02:57:08;6.53;;;2.30;;
68050;SDS011;54839;51.364;7.246;2024-02-14T02:59:35;3.60;;;1.50;;
68050;SDS011;54839;51.364;7.246;2024-02-14T03:02:02;3.53;;;1.33;;
68050;SDS011;54839;51.364;7.246;2024-02-14T03:04:28;2.10;;;1.50;;
68050;SDS011;54839;51.364;7.246;2024-02-14T03:06:55;3.57;;;1.73;;
68050;SDS011;54839;51.364;7.246;2024-02-14T03:09:21;2.00;;;1.47;;
68050;SDS011;54839;51.364;7.246;2024-02-14T03:11:47;1.37;;;1.27;;
68050;SDS011;54839;51.364;7.246;2024-02-14T03:14:13;4.57;;;2.13;;
68050;SDS011;54839;51.364;7.246;2024-02-14T03:16:39;2.10;;;1.60;;
68050;SDS011;54839;51.364;7.246;2024-02-14T03:19:05;3.40;;;1.90;;
68050;SDS011;54839;51.364;7.246;2024-02-14T03:21:30;2.43;;;1.67;;
68050;SDS011;54839;51.364;7.246;2024-02-14T03:24:01;2.80;;;1.60;;
68050;SDS011;54839;51.364;7.246;2024-02-14T03:26:30;2.53;;;1.47;;
68050;SDS011;54839;51.364;7.246;2024-02-14T03:28:58;3.37;;;2.37;;
68050;SDS011;54839;51.364;7.246;2024-02-14T03:31:25;2.57;;;2.20;;
68050;SDS011;54839;51.364;7.246;2024-02-14T03:33:50;2.10;;;1.83;;
68050;SDS011;54839;51.364;7.246;2024-02-14T03:36:17;4.70;;;2.43;;
68050;SDS011;54839;51.364;7.246;2024-02-14T03:38:43;2.40;;;2.20;;
68050;SDS011;54839;51.364;7.246;2024-02-14T03:41:11;2.80;;;2.00;;
68050;SDS011;54839;51.364;7.246;2024-02-14T03:43:38;1.67;;;1.43;;
68050;SDS011;54839;51.364;7.246;2024-02-14T03:46:03;2.47;;;2.27;;
68050;SDS011;54839;51.364;7.246;2024-02-14T03:48:30;3.23;;;2.07;;
68050;SDS011;54839;51.364;7.246;2024-02-14T03:50:56;3.20;;;2.20;;
68050;SDS011;54839;51.364;7.246;2024-02-14T03:53:22;2.90;;;1.93;;
68050;SDS011;54839;51.364;7.246;2024-02-14T03:55:48;2.63;;;2.20;;
68050;SDS011;54839;51.364;7.246;2024-02-14T03:58:14;3.00;;;2.63;;
68050;SDS011;54839;51.364;7.246;2024-02-14T04:00:42;5.23;;;2.87;;
68050;SDS011;54839;51.364;7.246;2024-02-14T04:03:11;5.43;;;2.97;;
68050;SDS011;54839;51.364;7.246;2024-02-14T04:05:37;9.33;;;3.83;;
68050;SDS011;54839;51.364;7.246;2024-02-14T04:08:03;3.97;;;2.60;;
68050;SDS011;54839;51.364;7.246;2024-02-14T04:10:29;4.80;;;2.97;;
68050;SDS011;54839;51.364;7.246;2024-02-14T04:12:55;6.63;;;2.20;;
68050;SDS011;54839;51.364;7.246;2024-02-14T04:15:20;4.93;;;2.60;;
68050;SDS011;54839;51.364;7.246;2024-02-14T04:17:46;4.80;;;2.60;;
68050;SDS011;54839;51.364;7.246;2024-02-14T04:20:12;3.00;;;2.40;;
68050;SDS011;54839;51.364;7.246;2024-02-14T04:22:37;4.07;;;3.63;;
68050;SDS011;54839;51.364;7.246;2024-02-14T04:25:03;3.87;;;3.57;;
68050;SDS011;54839;51.364;7.246;2024-02-14T04:27:29;4.63;;;2.80;;
68050;SDS011;54839;51.364;7.246;2024-02-14T04:29:55;4.57;;;2.87;;
68050;SDS011;54839;51.364;7.246;2024-02-14T04:32:20;3.60;;;2.93;;
68050;SDS011;54839;51.364;7.246;2024-02-14T04:34:46;3.57;;;2.33;;
68050;SDS011;54839;51.364;7.246;2024-02-14T04:37:12;5.30;;;3.13;;
68050;SDS011;54839;51.364;7.246;2024-02-14T04:39:41;4.47;;;3.20;;
68050;SDS011;54839;51.364;7.246;2024-02-14T04:42:07;4.27;;;3.83;;
68050;SDS011;54839;51.364;7.246;2024-02-14T04:44:33;3.47;;;3.17;;
68050;SDS011;54839;51.364;7.246;2024-02-14T04:46:59;4.00;;;3.13;;
68050;SDS011;54839;51.364;7.246;2024-02-14T04:49:25;5.63;;;3.30;;
68050;SDS011;54839;51.364;7.246;2024-02-14T04:51:51;4.10;;;3.67;;
68050;SDS011;54839;51.364;7.246;2024-02-14T04:54:17;3.07;;;2.77;;
68050;SDS011;54839;51.364;7.246;2024-02-14T04:56:44;3.73;;;2.43;;
68050;SDS011;54839;51.364;7.246;2024-02-14T04:59:10;5.13;;;4.63;;
68050;SDS011;54839;51.364;7.246;2024-02-14T05:01:36;4.00;;;3.67;;
68050;SDS011;54839;51.364;7.246;2024-02-14T05:04:02;4.80;;;4.40;;
68050;SDS011;54839;51.364;7.246;2024-02-14T05:06:28;3.77;;;3.47;;
68050;SDS011;54839;51.364;7.246;2024-02-14T05:08:53;4.20;;;3.80;;
68050;SDS011;54839;51.364;7.246;2024-02-14T05:11:19;4.43;;;4.00;;
68050;SDS011;54839;51.364;7.246;2024-02-14T05:13:45;4.47;;;3.27;;
68050;SDS011;54839;51.364;7.246;2024-02-14T05:16:11;6.47;;;5.80;;
68050;SDS011;54839;51.364;7.246;2024-02-14T05:18:37;4.03;;;3.70;;
68050;SDS011;54839;51.364;7.246;2024-02-14T05:21:07;6.17;;;5.00;;
68050;SDS011;54839;51.364;7.246;2024-02-14T05:23:33;4.30;;;3.40;;
68050;SDS011;54839;51.364;7.246;2024-02-14T05:26:00;4.30;;;3.90;;
68050;SDS011;54839;51.364;7.246;2024-02-14T05:28:27;7.73;;;5.37;;
68050;SDS011;54839;51.364;7.246;2024-02-14T05:30:53;4.70;;;4.30;;
68050;SDS011;54839;51.364;7.246;2024-02-14T05:33:19;5.37;;;4.30;;
68050;SDS011;54839;51.364;7.246;2024-02-14T05:35:47;4.33;;;3.93;;
68050;SDS011;54839;51.364;7.246;2024-02-14T05:38:14;4.43;;;4.03;;
68050;SDS011;54839;51.364;7.246;2024-02-14T05:40:40;5.30;;;4.80;;
68050;SDS011;54839;51.364;7.246;2024-02-14T05:43:05;5.67;;;3.97;;
68050;SDS011;54839;51.364;7.246;2024-02-14T05:45:32;5.40;;;4.80;;
68050;SDS011;54839;51.364;7.246;2024-02-14T05:47:58;4.20;;;3.77;;
68050;SDS011;54839;51.364;7.246;2024-02-14T05:50:23;5.20;;;4.70;;
68050;SDS011;54839;51.364;7.246;2024-02-14T05:52:49;9.60;;;5.70;;
68050;SDS011;54839;51.364;7.246;2024-02-14T05:55:15;5.43;;;5.03;;
68050;SDS011;54839;51.364;7.246;2024-02-14T05:57:40;9.77;;;5.10;;
68050;SDS011;54839;51.364;7.246;2024-02-14T06:00:06;4.90;;;4.40;;
68050;SDS011;54839;51.364;7.246;2024-02-14T06:02:34;5.13;;;4.13;;
68050;SDS011;54839;51.364;7.246;2024-02-14T06:05:00;5.47;;;4.97;;
68050;SDS011;54839;51.364;7.246;2024-02-14T06:07:26;6.50;;;4.63;;
68050;SDS011;54839;51.364;7.246;2024-02-14T06:09:51;4.83;;;4.37;;
68050;SDS011;54839;51.364;7.246;2024-02-14T06:12:17;7.00;;;4.47;;
68050;SDS011;54839;51.364;7.246;2024-02-14T06:14:42;5.20;;;4.33;;
68050;SDS011;54839;51.364;7.246;2024-02-14T06:17:08;4.37;;;3.13;;
68050;SDS011;54839;51.364;7.246;2024-02-14T06:19:34;5.57;;;4.30;;
68050;SDS011;54839;51.364;7.246;2024-02-14T06:22:00;3.87;;;3.23;;
68050;SDS011;54839;51.364;7.246;2024-02-14T06:24:25;5.60;;;4.70;;
68050;SDS011;54839;51.364;7.246;2024-02-14T06:26:51;4.50;;;4.10;;
68050;SDS011;54839;51.364;7.246;2024-02-14T06:29:17;5.67;;;5.10;;
68050;SDS011;54839;51.364;7.246;2024-02-14T06:31:42;7.40;;;5.00;;
68050;SDS011;54839;51.364;7.246;2024-02-14T06:34:08;4.93;;;4.53;;
68050;SDS011;54839;51.364;7.246;2024-02-14T06:36:33;7.33;;;6.67;;
68050;SDS011;54839;51.364;7.246;2024-02-14T06:38:59;8.10;;;7.30;;
68050;SDS011;54839;51.364;7.246;2024-02-14T06:41:25;8.77;;;7.93;;
68050;SDS011;54839;51.364;7.246;2024-02-14T06:43:50;8.60;;;7.80;;
68050;SDS011;54839;51.364;7.246;2024-02-14T06:46:16;9.60;;;8.80;;
68050;SDS011;54839;51.364;7.246;2024-02-14T06:48:42;7.27;;;6.57;;
68050;SDS011;54839;51.364;7.246;2024-02-14T06:51:07;11.30;;;8.10;;
68050;SDS011;54839;51.364;7.246;2024-02-14T06:53:33;8.07;;;7.37;;
68050;SDS011;54839;51.364;7.246;2024-02-14T06:55:59;9.40;;;8.37;;
68050;SDS011;54839;51.364;7.246;2024-02-14T06:58:25;10.30;;;9.30;;
68050;SDS011;54839;51.364;7.246;2024-02-14T07:00:50;11.83;;;10.70;;
68050;SDS011;54839;51.364;7.246;2024-02-14T07:03:16;12.13;;;10.07;;
68050;SDS011;54839;51.364;7.246;2024-02-14T07:05:41;12.63;;;11.53;;
68050;SDS011;54839;51.364;7.246;2024-02-14T07:08:07;10.70;;;9.80;;
68050;SDS011;54839;51.364;7.246;2024-02-14T07:10:33;11.47;;;10.27;;
68050;SDS011;54839;51.364;7.246;2024-02-14T07:12:58;12.53;;;11.43;;
68050;SDS011;54839;51.364;7.246;2024-02-14T07:15:24;8.80;;;7.90;;
68050;SDS011;54839;51.364;7.246;2024-02-14T07:17:53;12.70;;;11.60;;
68050;SDS011;54839;51.364;7.246;2024-02-14T07:20:22;11.67;;;10.57;;
68050;SDS011;54839;51.364;7.246;2024-02-14T07:22:50;9.63;;;8.63;;
68050;SDS011;54839;51.364;7.246;2024-02-14T07:25:18;11.67;;;10.43;;
68050;SDS011;54839;51.364;7.246;2024-02-14T07:27:44;10.87;;;9.87;;
68050;SDS011;54839;51.364;7.246;2024-02-14T07:30:11;8.40;;;7.30;;
68050;SDS011;54839;51.364;7.246;2024-02-14T07:32:37;10.27;;;9.27;;
68050;SDS011;54839;51.364;7.246;2024-02-14T07:35:03;11.73;;;10.73;;
68050;SDS011;54839;51.364;7.246;2024-02-14T07:37:30;12.23;;;11.00;;
68050;SDS011;54839;51.364;7.246;2024-02-14T07:39:55;10.90;;;9.87;;
68050;SDS011;54839;51.364;7.246;2024-02-14T07:42:21;12.13;;;10.80;;
68050;SDS011;54839;51.364;7.246;2024-02-14T07:44:47;10.17;;;9.17;;
68050;SDS011;54839;51.364;7.246;2024-02-14T07:47:12;9.57;;;8.77;;
68050;SDS011;54839;51.364;7.246;2024-02-14T07:49:39;8.40;;;7.60;;
68050;SDS011;54839;51.364;7.246;2024-02-14T07:52:05;9.07;;;8.27;;
68050;SDS011;54839;51.364;7.246;2024-02-14T07:54:31;11.10;;;9.97;;
68050;SDS011;54839;51.364;7.246;2024-02-14T07:56:56;13.93;;;12.57;;
68050;SDS011;54839;51.364;7.246;2024-02-14T07:59:22;10.50;;;9.50;;
68050;SDS011;54839;51.364;7.246;2024-02-14T08:01:47;10.60;;;9.70;;
68050;SDS011;54839;51.364;7.246;2024-02-14T08:04:13;11.30;;;10.20;;
68050;SDS011;54839;51.364;7.246;2024-02-14T08:06:38;9.00;;;8.20;;
68050;SDS011;54839;51.364;7.246;2024-02-14T08:09:04;9.73;;;8.83;;
68050;SDS011;54839;51.364;7.246;2024-02-14T08:11:34;7.97;;;7.27;;
68050;SDS011;54839;51.364;7.246;2024-02-14T08:14:00;7.77;;;7.10;;
68050;SDS011;54839;51.364;7.246;2024-02-14T08:16:26;6.20;;;5.63;;
68050;SDS011;54839;51.364;7.246;2024-02-14T08:18:51;7.90;;;7.20;;
68050;SDS011;54839;51.364;7.246;2024-02-14T08:21:23;6.10;;;5.47;;
68050;SDS011;54839;51.364;7.246;2024-02-14T08:23:55;7.00;;;6.30;;
68050;SDS011;54839;51.364;7.246;2024-02-14T08:26:21;6.80;;;6.20;;
68050;SDS011;54839;51.364;7.246;2024-02-14T08:28:47;8.53;;;7.80;;
68050;SDS011;54839;51.364;7.246;2024-02-14T08:31:16;9.07;;;6.53;;
68050;SDS011;54839;51.364;7.246;2024-02-14T08:33:42;7.93;;;6.83;;
68050;SDS011;54839;51.364;7.246;2024-02-14T08:36:08;8.00;;;7.30;;
68050;SDS011;54839;51.364;7.246;2024-02-14T08:38:34;7.30;;;6.70;;
68050;SDS011;54839;51.364;7.246;2024-02-14T08:41:02;8.73;;;7.87;;
68050;SDS011;54839;51.364;7.246;2024-02-14T08:43:28;6.30;;;5.70;;
68050;SDS011;54839;51.364;7.246;2024-02-14T08:45:55;6.83;;;6.33;;
68050;SDS011;54839;51.364;7.246;2024-02-14T08:48:21;6.63;;;6.03;;
68050;SDS011;54839;51.364;7.246;2024-02-14T08:50:47;7.87;;;6.00;;
68050;SDS011;54839;51.364;7.246;2024-02-14T08:53:13;5.50;;;5.00;;
68050;SDS011;54839;51.364;7.246;2024-02-14T08:55:42;6.57;;;5.87;;
68050;SDS011;54839;51.364;7.246;2024-02-14T08:58:08;10.90;;;7.70;;
68050;SDS011;54839;51.364;7.246;2024-02-14T09:00:37;7.70;;;6.10;;
68050;SDS011;54839;51.364;7.246;2024-02-14T09:03:04;6.80;;;6.20;;
68050;SDS011;54839;51.364;7.246;2024-02-14T09:05:30;8.10;;;7.27;;
68050;SDS011;54839;51.364;7.246;2024-02-14T09:07:56;7.03;;;5.73;;
68050;SDS011;54839;51.364;7.246;2024-02-14T09:10:21;6.43;;;5.80;;
68050;SDS011;54839;51.364;7.246;2024-02-14T09:12:47;11.33;;;8.30;;
68050;SDS011;54839;51.364;7.246;2024-02-14T09:15:13;7.37;;;6.10;;
68050;SDS011;54839;51.364;7.246;2024-02-14T09:17:39;6.97;;;5.67;;
68050;SDS011;54839;51.364;7.246;2024-02-14T09:20:06;6.60;;;5.83;;
68050;SDS011;54839;51.364;7.246;2024-02-14T09:22:38;6.97;;;4.70;;
68050;SDS011;54839;51.364;7.246;2024-02-14T09:25:06;5.53;;;5.03;;
68050;SDS011;54839;51.364;7.246;2024-02-14T09:27:33;6.50;;;4.20;;
68050;SDS011;54839;51.364;7.246;2024-02-14T09:30:00;5.20;;;3.77;;
68050;SDS011;54839;51.364;7.246;2024-02-14T09:32:28;3.87;;;2.73;;
68050;SDS011;54839;51.364;7.246;2024-02-14T09:34:54;5.20;;;3.60;;
68050;SDS011;54839;51.364;7.246;2024-02-14T09:37:20;7.30;;;4.00;;
68050;SDS011;54839;51.364;7.246;2024-02-14T09:39:46;6.00;;;4.13;;
68050;SDS011;54839;51.364;7.246;2024-02-14T09:42:13;3.23;;;2.93;;
68050;SDS011;54839;51.364;7.246;2024-02-14T09:44:40;4.87;;;3.40;;
68050;SDS011;54839;51.364;7.246;2024-02-14T09:47:07;3.23;;;2.93;;
68050;SDS011;54839;51.364;7.246;2024-02-14T09:49:35;3.97;;;2.70;;
68050;SDS011;54839;51.364;7.246;2024-02-14T09:52:04;2.70;;;2.50;;
68050;SDS011;54839;51.364;7.246;2024-02-14T09:54:31;4.77;;;2.50;;
68050;SDS011;54839;51.364;7.246;2024-02-14T09:57:01;4.40;;;3.30;;
68050;SDS011;54839;51.364;7.246;2024-02-14T09:59:27;2.63;;;2.43;;
68050;SDS011;54839;51.364;7.246;2024-02-14T10:01:54;4.73;;;3.03;;
68050;SDS011;54839;51.364;7.246;2024-02-14T10:04:20;3.60;;;2.63;;
68050;SDS011;54839;51.364;7.246;2024-02-14T10:06:47;3.83;;;3.00;;
68050;SDS011;54839;51.364;7.246;2024-02-14T10:09:20;2.17;;;1.97;;
68050;SDS011;54839;51.364;7.246;2024-02-14T10:11:47;3.40;;;2.40;;
68050;SDS011;54839;51.364;7.246;2024-02-14T10:14:13;3.77;;;2.53;;
68050;SDS011;54839;51.364;7.246;2024-02-14T10:16:39;4.23;;;3.00;;
68050;SDS011;54839;51.364;7.246;2024-02-14T10:19:04;4.37;;;3.30;;
68050;SDS011;54839;51.364;7.246;2024-02-14T10:21:32;8.57;;;6.50;;
68050;SDS011;54839;51.364;7.246;2024-02-14T10:24:01;3.47;;;2.70;;
68050;SDS011;54839;51.364;7.246;2024-02-14T10:26:28;4.30;;;2.70;;
68050;SDS011;54839;51.364;7.246;2024-02-14T10:28:56;4.07;;;2.87;;
68050;SDS011;54839;51.364;7.246;2024-02-14T10:31:24;4.60;;;2.83;;
68050;SDS011;54839;51.364;7.246;2024-02-14T10:33:50;3.53;;;2.40;;
68050;SDS011;54839;51.364;7.246;2024-02-14T10:36:18;4.93;;;2.87;;
68050;SDS011;54839;51.364;7.246;2024-02-14T10:38:45;4.30;;;2.77;;
68050;SDS011;54839;51.364;7.246;2024-02-14T10:41:14;3.00;;;2.60;;
68050;SDS011;54839;51.364;7.246;2024-02-14T10:43:41;3.47;;;2.00;;
68050;SDS011;54839;51.364;7.246;2024-02-14T10:46:20;3.60;;;2.23;;
68050;SDS011;54839;51.364;7.246;2024-02-14T10:48:47;3.10;;;2.13;;
68050;SDS011;54839;51.364;7.246;2024-02-14T10:51:14;4.30;;;2.07;;
68050;SDS011;54839;51.364;7.246;2024-02-14T10:53:41;2.17;;;1.93;;
68050;SDS011;54839;51.364;7.246;2024-02-14T10:56:11;2.40;;;1.80;;
68050;SDS011;54839;51.364;7.246;2024-02-14T10:58:44;4.13;;;2.03;;
68050;SDS011;54839;51.364;7.246;2024-02-14T11:01:12;2.83;;;2.50;;
68050;SDS011;54839;51.364;7.246;2024-02-14T11:03:41;5.40;;;1.90;;
68050;SDS011;54839;51.364;7.246;2024-02-14T11:06:07;2.63;;;1.90;;
68050;SDS011;54839;51.364;7.246;2024-02-14T11:08:33;3.07;;;2.33;;
68050;SDS011;54839;51.364;7.246;2024-02-14T11:11:00;3.90;;;2.30;;
68050;SDS011;54839;51.364;7.246;2024-02-14T11:13:26;4.47;;;2.10;;
68050;SDS011;54839;51.364;7.246;2024-02-14T11:15:56;3.77;;;2.30;;
68050;SDS011;54839;51.364;7.246;2024-02-14T11:18:25;3.00;;;1.80;;
68050;SDS011;54839;51.364;7.246;2024-02-14T11:20:58;3.67;;;2.00;;
68050;SDS011;54839;51.364;7.246;2024-02-14T11:23:24;4.60;;;2.63;;
68050;SDS011;54839;51.364;7.246;2024-02-14T11:25:49;3.10;;;2.03;;
68050;SDS011;54839;51.364;7.246;2024-02-14T11:28:16;4.07;;;2.20;;
68050;SDS011;54839;51.364;7.246;2024-02-14T11:30:50;3.87;;;3.40;;
68050;SDS011;54839;51.364;7.246;2024-02-14T11:35:46;2.40;;;2.20;;
68050;SDS011;54839;51.364;7.246;2024-02-14T11:38:20;3.17;;;1.80;;
68050;SDS011;54839;51.364;7.246;2024-02-14T11:40:47;4.37;;;2.80;;
68050;SDS011;54839;51.364;7.246;2024-02-14T11:43:14;2.83;;;2.17;;
68050;SDS011;54839;51.364;7.246;2024-02-14T11:45:42;2.60;;;1.67;;
68050;SDS011;54839;51.364;7.246;2024-02-14T11:48:08;8.07;;;1.90;;
68050;SDS011;54839;51.364;7.246;2024-02-14T11:50:35;2.80;;;1.97;;
68050;SDS011;54839;51.364;7.246;2024-02-14T11:53:03;14.10;;;12.17;;
68050;SDS011;54839;51.364;7.246;2024-02-14T11:55:31;4.80;;;2.80;;
68050;SDS011;54839;51.364;7.246;2024-02-14T11:57:57;6.20;;;3.50;;
68050;SDS011;54839;51.364;7.246;2024-02-14T12:00:23;4.67;;;3.80;;
68050;SDS011;54839;51.364;7.246;2024-02-14T12:02:49;4.00;;;3.70;;
68050;SDS011;54839;51.364;7.246;2024-02-14T12:05:16;11.53;;;4.50;;
68050;SDS011;54839;51.364;7.246;2024-02-14T12:07:42;6.60;;;4.30;;
68050;SDS011;54839;51.364;7.246;2024-02-14T12:10:09;4.13;;;3.40;;
68050;SDS011;54839;51.364;7.246;2024-02-14T12:12:34;11.97;;;7.30;;
68050;SDS011;54839;51.364;7.246;2024-02-14T12:15:01;6.77;;;5.50;;
68050;SDS011;54839;51.364;7.246;2024-02-14T12:17:27;5.17;;;4.67;;
68050;SDS011;54839;51.364;7.246;2024-02-14T12:20:04;7.63;;;5.50;;
68050;SDS011;54839;51.364;7.246;2024-02-14T12:22:35;6.80;;;5.23;;
68050;SDS011;54839;51.364;7.246;2024-02-14T12:25:02;5.97;;;5.47;;
68050;SDS011;54839;51.364;7.246;2024-02-14T12:27:31;7.80;;;7.00;;
68050;SDS011;54839;51.364;7.246;2024-02-14T12:29:58;11.00;;;5.60;;
68050;SDS011;54839;51.364;7.246;2024-02-14T12:32:23;7.50;;;6.53;;
68050;SDS011;54839;51.364;7.246;2024-02-14T12:34:49;7.47;;;6.10;;
68050;SDS011;54839;51.364;7.246;2024-02-14T12:37:15;8.63;;;6.10;;
68050;SDS011;54839;51.364;7.246;2024-02-14T12:39:40;8.93;;;6.03;;
68050;SDS011;54839;51.364;7.246;2024-02-14T12:42:06;7.07;;;5.80;;
68050;SDS011;54839;51.364;7.246;2024-02-14T12:44:31;6.43;;;5.80;;
68050;SDS011;54839;51.364;7.246;2024-02-14T12:46:57;5.10;;;4.60;;
68050;SDS011;54839;51.364;7.246;2024-02-14T12:49:23;4.60;;;4.20;;
68050;SDS011;54839;51.364;7.246;2024-02-14T12:51:51;4.67;;;4.27;;
68050;SDS011;54839;51.364;7.246;2024-02-14T12:54:16;3.10;;;2.80;;
68050;SDS011;54839;51.364;7.246;2024-02-14T12:56:42;2.90;;;2.60;;
68050;SDS011;54839;51.364;7.246;2024-02-14T12:59:08;3.40;;;3.10;;
68050;SDS011;54839;51.364;7.246;2024-02-14T13:01:40;3.60;;;1.80;;
68050;SDS011;54839;51.364;7.246;2024-02-14T13:04:05;5.10;;;1.67;;
68050;SDS011;54839;51.364;7.246;2024-02-14T13:06:32;3.17;;;2.00;;
68050;SDS011;54839;51.364;7.246;2024-02-14T13:08:58;2.60;;;1.80;;
68050;SDS011;54839;51.364;7.246;2024-02-14T13:11:25;2.37;;;1.60;;
68050;SDS011;54839;51.364;7.246;2024-02-14T13:13:50;2.53;;;1.27;;
68050;SDS011;54839;51.364;7.246;2024-02-14T13:16:16;3.60;;;3.30;;
68050;SDS011;54839;51.364;7.246;2024-02-14T13:18:41;2.43;;;1.40;;
68050;SDS011;54839;51.364;7.246;2024-02-14T13:21:07;2.50;;;2.10;;
68050;SDS011;54839;51.364;7.246;2024-02-14T13:23:33;2.83;;;2.53;;
68050;SDS011;54839;51.364;7.246;2024-02-14T13:25:58;3.50;;;2.30;;
68050;SDS011;54839;51.364;7.246;2024-02-14T13:28:24;2.00;;;1.80;;
68050;SDS011;54839;51.364;7.246;2024-02-14T13:30:49;2.37;;;1.97;;
68050;SDS011;54839;51.364;7.246;2024-02-14T13:33:15;1.97;;;1.40;;
68050;SDS011;54839;51.364;7.246;2024-02-14T13:35:41;2.23;;;1.90;;
68050;SDS011;54839;51.364;7.246;2024-02-14T13:38:07;3.17;;;2.33;;
68050;SDS011;54839;51.364;7.246;2024-02-14T13:40:34;3.10;;;2.70;;
68050;SDS011;54839;51.364;7.246;2024-02-14T13:43:00;3.47;;;3.20;;
68050;SDS011;54839;51.364;7.246;2024-02-14T13:45:26;3.30;;;3.07;;
68050;SDS011;54839;51.364;7.246;2024-02-14T13:48:04;3.40;;;3.10;;
68050;SDS011;54839;51.364;7.246;2024-02-14T13:50:30;3.10;;;2.80;;
68050;SDS011;54839;51.364;7.246;2024-02-14T13:52:55;3.67;;;3.30;;
68050;SDS011;54839;51.364;7.246;2024-02-14T13:55:21;4.10;;;3.67;;
68050;SDS011;54839;51.364;7.246;2024-02-14T13:57:46;4.60;;;3.70;;
68050;SDS011;54839;51.364;7.246;2024-02-14T14:00:12;4.10;;;3.70;;
68050;SDS011;54839;51.364;7.246;2024-02-14T14:02:38;4.70;;;4.30;;
68050;SDS011;54839;51.364;7.246;2024-02-14T14:05:07;8.13;;;5.37;;
68050;SDS011;54839;51.364;7.246;2024-02-14T14:07:34;6.43;;;4.27;;
68050;SDS011;54839;51.364;7.246;2024-02-14T14:10:01;4.30;;;3.90;;
68050;SDS011;54839;51.364;7.246;2024-02-14T14:12:30;4.13;;;3.73;;
68050;SDS011;54839;51.364;7.246;2024-02-14T14:14:56;3.80;;;3.50;;
68050;SDS011;54839;51.364;7.246;2024-02-14T14:17:22;5.37;;;4.87;;
68050;SDS011;54839;51.364;7.246;2024-02-14T14:19:48;3.47;;;3.17;;
68050;SDS011;54839;51.364;7.246;2024-02-14T14:22:13;4.20;;;3.80;;
68050;SDS011;54839;51.364;7.246;2024-02-14T14:24:40;4.30;;;2.70;;
68050;SDS011;54839;51.364;7.246;2024-02-14T14:27:06;3.40;;;3.10;;
68050;SDS011;54839;51.364;7.246;2024-02-14T14:29:38;9.23;;;4.83;;
68050;SDS011;54839;51.364;7.246;2024-02-14T14:32:06;2.83;;;2.63;;
68050;SDS011;54839;51.364;7.246;2024-02-14T14:34:32;3.23;;;2.10;;
68050;SDS011;54839;51.364;7.246;2024-02-14T14:36:58;5.13;;;2.77;;
68050;SDS011;54839;51.364;7.246;2024-02-14T14:39:23;2.13;;;1.93;;
68050;SDS011;54839;51.364;7.246;2024-02-14T14:41:49;4.40;;;2.47;;
68050;SDS011;54839;51.364;7.246;2024-02-14T14:44:16;5.67;;;2.60;;